This is the latest recevied weather packets stored in our database for station/object KU4DD. If no packets are shown the sender has not sent any weather packets the latest 10 day(s).
| Time | Temp. | Humidity | Pressure | Rain* | Wind** | Luminosity | Snow |
|---|---|---|---|---|---|---|---|
| 1787696756 | 30.56° C | 50% | 1016.9 hPa | 0 mm | - | 76 W/m² | - |
| 1787695502 | 31.67° C | 45% | 1016.9 hPa | 0 mm | - | 95 W/m² | - |
| 1787695182 | 31.11° C | 48% | 1016.9 hPa | 0 mm | - | 125 W/m² | - |
| 1787690258 | 30.56° C | 46% | 1016.3 hPa | 0 mm | - | 176 W/m² | - |
| 1787689617 | 30.56° C | 45% | 1016.3 hPa | 0 mm | - | 130 W/m² | - |
| 1787685014 | 31.11° C | 48% | 1016.9 hPa | 0 mm | - | 830 W/m² | - |
| 1787683472 | 30.56° C | 49% | 1016.9 hPa | 0 mm | - | 875 W/m² | - |
| 1787682850 | 30° C | 50% | 1017.3 hPa | 0 mm | - | 895 W/m² | - |
| 1787680720 | 29.44° C | 54% | 1017.9 hPa | 0 mm | - | 926 W/m² | - |
| 1787679802 | 29.44° C | 52% | 1017.9 hPa | 0 mm | - | 925 W/m² | - |
| 1787679188 | 29.44° C | 51% | 1017.9 hPa | 0 mm | - | 932 W/m² | - |
| 1787675237 | 27.78° C | 59% | 1018.3 hPa | 0 mm | - | 65 W/m² | - |
| 1787672807 | 27.22° C | 61% | 1018.6 hPa | 0 mm | - | 844 W/m² | - |
| 1787670378 | 25.56° C | 64% | 1019.3 hPa | 0 mm | - | 761 W/m² | - |
| 1787669155 | 25.56° C | 64% | 1019.3 hPa | 0 mm | - | 717 W/m² | - |
| 1787668233 | 24.44° C | 65% | 1019.3 hPa | 0 mm | - | 673 W/m² | - |
| 1787667316 | 24.44° C | 67% | 1019 hPa | 0 mm | - | 628 W/m² | - |
| 1787665796 | 23.89° C | 67% | 1019 hPa | 0 mm | - | 554 W/m² | - |
| 1787661248 | 21.67° C | 71% | 1018.6 hPa | 0 mm | - | 299 W/m² | - |
| 1787660632 | 21.11° C | 73% | 1018.6 hPa | 0 mm | - | 260 W/m² | - |
| 1787658810 | 19.44° C | 76% | 1017.9 hPa | 0 mm | - | 127 W/m² | - |
| 1787656978 | 18.89° C | 78% | 1017.6 hPa | 0 mm | - | 79 W/m² | - |
| 1787656363 | 18.89° C | 78% | 1017.9 hPa | 0 mm | - | 44 W/m² | - |
| 1787655442 | 18.33° C | 79% | 1017.3 hPa | 0 mm | - | 19 W/m² | - |
| 1787652713 | 18.89° C | 76% | 1016.6 hPa | 0 mm | - | 0 W/m² | - |
* Rain latest hour (hover to see other rain measurements)
** Current wind speed in m/s (hover to see current wind gust speed)